sensor_id;sensor_type;location;lat;lon;timestamp;pressure;altitude;pressure_sealevel;temperature;humidity
23166;BME280;11751;42.700;24.170;2022-12-07T00:00:40;93988.13;;;6.33;96.35
23166;BME280;11751;42.700;24.170;2022-12-07T00:03:05;93997.69;;;6.51;95.73
23166;BME280;11751;42.700;24.170;2022-12-07T00:05:30;93995.09;;;6.53;95.67
23166;BME280;11751;42.700;24.170;2022-12-07T00:07:56;93997.88;;;6.66;95.06
23166;BME280;11751;42.700;24.170;2022-12-07T00:10:21;93981.41;;;6.68;94.73
23166;BME280;11751;42.700;24.170;2022-12-07T00:12:47;93981.19;;;6.66;94.61
23166;BME280;11751;42.700;24.170;2022-12-07T00:15:12;93988.66;;;6.71;94.66
23166;BME280;11751;42.700;24.170;2022-12-07T00:17:37;93990.19;;;6.72;94.60
23166;BME280;11751;42.700;24.170;2022-12-07T00:20:03;93989.34;;;6.77;94.38
23166;BME280;11751;42.700;24.170;2022-12-07T00:22:29;93985.06;;;6.76;94.36
23166;BME280;11751;42.700;24.170;2022-12-07T00:24:54;93985.28;;;6.78;94.22
23166;BME280;11751;42.700;24.170;2022-12-07T00:27:20;93976.94;;;6.78;94.18
23166;BME280;11751;42.700;24.170;2022-12-07T00:29:45;93974.56;;;6.81;94.09
23166;BME280;11751;42.700;24.170;2022-12-07T00:32:10;93978.44;;;6.78;94.05
23166;BME280;11751;42.700;24.170;2022-12-07T00:34:36;93967.38;;;6.86;93.68
23166;BME280;11751;42.700;24.170;2022-12-07T00:37:01;93972.75;;;6.71;94.26
23166;BME280;11751;42.700;24.170;2022-12-07T00:39:27;93969.00;;;6.69;94.58
23166;BME280;11751;42.700;24.170;2022-12-07T00:41:52;93969.00;;;6.69;94.25
23166;BME280;11751;42.700;24.170;2022-12-07T00:44:18;93969.84;;;6.64;94.46
23166;BME280;11751;42.700;24.170;2022-12-07T00:46:43;93968.34;;;6.50;95.14
23166;BME280;11751;42.700;24.170;2022-12-07T00:49:10;93967.16;;;6.58;94.85
23166;BME280;11751;42.700;24.170;2022-12-07T00:51:35;93972.41;;;6.62;94.84
23166;BME280;11751;42.700;24.170;2022-12-07T00:54:01;93964.72;;;6.55;95.09
23166;BME280;11751;42.700;24.170;2022-12-07T00:56:28;93969.53;;;6.54;95.07
23166;BME280;11751;42.700;24.170;2022-12-07T00:58:57;93967.38;;;6.60;94.97
23166;BME280;11751;42.700;24.170;2022-12-07T01:01:26;93976.28;;;6.59;95.14
23166;BME280;11751;42.700;24.170;2022-12-07T01:03:52;93971.56;;;6.67;94.74
23166;BME280;11751;42.700;24.170;2022-12-07T01:06:20;93968.56;;;6.65;94.81
23166;BME280;11751;42.700;24.170;2022-12-07T01:08:45;93967.06;;;6.64;94.58
23166;BME280;11751;42.700;24.170;2022-12-07T01:11:17;93962.03;;;6.49;94.52
23166;BME280;11751;42.700;24.170;2022-12-07T01:13:44;93958.28;;;6.47;94.59
23166;BME280;11751;42.700;24.170;2022-12-07T01:16:13;93974.13;;;6.52;94.27
23166;BME280;11751;42.700;24.170;2022-12-07T01:18:39;93966.09;;;6.48;94.43
23166;BME280;11751;42.700;24.170;2022-12-07T01:21:11;93971.34;;;6.52;94.48
23166;BME280;11751;42.700;24.170;2022-12-07T01:23:38;93969.31;;;6.52;94.36
23166;BME280;11751;42.700;24.170;2022-12-07T01:26:07;93965.56;;;6.37;94.48
23166;BME280;11751;42.700;24.170;2022-12-07T01:28:33;93960.44;;;6.41;94.42
23166;BME280;11751;42.700;24.170;2022-12-07T01:31:03;93954.97;;;6.48;94.22
23166;BME280;11751;42.700;24.170;2022-12-07T01:33:32;93949.09;;;6.52;94.37
23166;BME280;11751;42.700;24.170;2022-12-07T01:36:06;93953.81;;;6.57;94.14
23166;BME280;11751;42.700;24.170;2022-12-07T01:38:32;93952.94;;;6.62;94.08
23166;BME280;11751;42.700;24.170;2022-12-07T01:41:00;93947.38;;;6.62;94.30
23166;BME280;11751;42.700;24.170;2022-12-07T01:43:28;93949.97;;;6.60;94.18
23166;BME280;11751;42.700;24.170;2022-12-07T01:45:55;93948.25;;;6.57;94.07
23166;BME280;11751;42.700;24.170;2022-12-07T01:48:25;93950.69;;;6.47;94.99
23166;BME280;11751;42.700;24.170;2022-12-07T01:50:53;93938.81;;;6.47;94.91
23166;BME280;11751;42.700;24.170;2022-12-07T01:53:19;93929.31;;;6.42;95.21
23166;BME280;11751;42.700;24.170;2022-12-07T01:55:47;93933.69;;;6.51;94.87
23166;BME280;11751;42.700;24.170;2022-12-07T01:58:15;93935.94;;;6.52;94.76
23166;BME280;11751;42.700;24.170;2022-12-07T02:00:41;93925.56;;;6.53;94.88
23166;BME280;11751;42.700;24.170;2022-12-07T02:03:27;93932.84;;;6.56;94.87
23166;BME280;11751;42.700;24.170;2022-12-07T02:05:55;93927.28;;;6.56;94.87
23166;BME280;11751;42.700;24.170;2022-12-07T02:08:21;93925.78;;;6.55;95.07
23166;BME280;11751;42.700;24.170;2022-12-07T02:10:47;93924.72;;;6.58;94.98
23166;BME280;11751;42.700;24.170;2022-12-07T02:13:20;93916.59;;;6.60;94.71
23166;BME280;11751;42.700;24.170;2022-12-07T02:29:40;93917.44;;;6.29;96.66
23166;BME280;11751;42.700;24.170;2022-12-07T02:32:23;93914.88;;;6.31;96.62
23166;BME280;11751;42.700;24.170;2022-12-07T02:34:54;93912.09;;;6.31;96.59
23166;BME280;11751;42.700;24.170;2022-12-07T02:37:36;93907.38;;;6.39;96.36
23166;BME280;11751;42.700;24.170;2022-12-07T02:42:40;93920.00;;;6.40;96.13
23166;BME280;11751;42.700;24.170;2022-12-07T02:45:08;93908.56;;;6.43;96.14
23166;BME280;11751;42.700;24.170;2022-12-07T02:47:35;93913.16;;;6.41;96.19
23166;BME280;11751;42.700;24.170;2022-12-07T02:50:04;93907.78;;;6.43;95.94
23166;BME280;11751;42.700;24.170;2022-12-07T02:52:30;93918.06;;;6.48;95.65
23166;BME280;11751;42.700;24.170;2022-12-07T02:54:55;93909.72;;;6.48;95.68
23166;BME280;11751;42.700;24.170;2022-12-07T02:57:38;93905.22;;;6.45;95.99
23166;BME280;11751;42.700;24.170;2022-12-07T03:00:09;93909.28;;;6.44;95.83
23166;BME280;11751;42.700;24.170;2022-12-07T03:13:02;93901.81;;;6.39;95.96
23166;BME280;11751;42.700;24.170;2022-12-07T03:17:59;93898.50;;;6.40;95.96
23166;BME280;11751;42.700;24.170;2022-12-07T03:20:27;93899.03;;;6.39;96.13
23166;BME280;11751;42.700;24.170;2022-12-07T03:22:54;93903.50;;;6.42;95.93
23166;BME280;11751;42.700;24.170;2022-12-07T03:25:20;93898.16;;;6.44;96.05
23166;BME280;11751;42.700;24.170;2022-12-07T03:30:15;93898.59;;;6.48;95.91
23166;BME280;11751;42.700;24.170;2022-12-07T03:38:10;93900.94;;;6.44;95.91
23166;BME280;11751;42.700;24.170;2022-12-07T03:40:48;93896.66;;;6.43;95.82
23166;BME280;11751;42.700;24.170;2022-12-07T03:43:18;93893.88;;;6.43;95.80
23166;BME280;11751;42.700;24.170;2022-12-07T03:48:26;93882.88;;;6.37;95.74
23166;BME280;11751;42.700;24.170;2022-12-07T03:51:05;93880.31;;;6.39;95.41
23166;BME280;11751;42.700;24.170;2022-12-07T03:53:40;93876.91;;;6.33;95.69
23166;BME280;11751;42.700;24.170;2022-12-07T03:56:09;93883.97;;;6.34;95.59
23166;BME280;11751;42.700;24.170;2022-12-07T03:58:36;93880.53;;;6.28;95.65
23166;BME280;11751;42.700;24.170;2022-12-07T04:01:02;93876.03;;;6.25;95.68
23166;BME280;11751;42.700;24.170;2022-12-07T04:03:28;93886.06;;;6.28;95.50
23166;BME280;11751;42.700;24.170;2022-12-07T04:05:53;93879.78;;;6.28;95.24
23166;BME280;11751;42.700;24.170;2022-12-07T04:08:19;93889.72;;;6.23;95.43
23166;BME280;11751;42.700;24.170;2022-12-07T04:10:45;93888.09;;;6.15;95.77
23166;BME280;11751;42.700;24.170;2022-12-07T04:13:10;93886.81;;;6.03;96.51
23166;BME280;11751;42.700;24.170;2022-12-07T04:15:36;93877.00;;;6.02;96.32
23166;BME280;11751;42.700;24.170;2022-12-07T04:18:01;93883.19;;;6.08;96.16
23166;BME280;11751;42.700;24.170;2022-12-07T04:20:27;93884.25;;;6.05;96.28
23166;BME280;11751;42.700;24.170;2022-12-07T04:22:52;93890.25;;;6.09;96.28
23166;BME280;11751;42.700;24.170;2022-12-07T04:25:17;93891.31;;;6.06;96.53
23166;BME280;11751;42.700;24.170;2022-12-07T04:27:43;93891.31;;;6.06;96.73
23166;BME280;11751;42.700;24.170;2022-12-07T04:30:08;93892.50;;;6.10;96.86
23166;BME280;11751;42.700;24.170;2022-12-07T04:32:34;93886.28;;;6.04;97.02
23166;BME280;11751;42.700;24.170;2022-12-07T04:34:59;93883.84;;;6.01;97.52
23166;BME280;11751;42.700;24.170;2022-12-07T04:37:25;93882.22;;;5.93;97.82
23166;BME280;11751;42.700;24.170;2022-12-07T04:39:50;93873.97;;;5.87;98.30
23166;BME280;11751;42.700;24.170;2022-12-07T04:42:16;93893.66;;;5.89;98.06
23166;BME280;11751;42.700;24.170;2022-12-07T04:44:41;93881.75;;;5.89;97.97
23166;BME280;11751;42.700;24.170;2022-12-07T04:47:06;93874.84;;;5.82;98.24
23166;BME280;11751;42.700;24.170;2022-12-07T04:49:32;93886.13;;;5.84;98.19
23166;BME280;11751;42.700;24.170;2022-12-07T04:51:57;93885.81;;;5.88;98.04
23166;BME280;11751;42.700;24.170;2022-12-07T04:54:23;93886.50;;;5.93;97.72
23166;BME280;11751;42.700;24.170;2022-12-07T04:56:48;93879.31;;;5.85;97.66
23166;BME280;11751;42.700;24.170;2022-12-07T04:59:16;93877.47;;;5.88;97.51
23166;BME280;11751;42.700;24.170;2022-12-07T05:01:41;93878.47;;;5.90;97.47
23166;BME280;11751;42.700;24.170;2022-12-07T05:04:07;93880.06;;;5.86;97.37
23166;BME280;11751;42.700;24.170;2022-12-07T05:06:33;93884.34;;;5.87;97.21
23166;BME280;11751;42.700;24.170;2022-12-07T05:09:00;93895.97;;;5.85;97.15
23166;BME280;11751;42.700;24.170;2022-12-07T05:11:26;93894.38;;;5.90;97.09
23166;BME280;11751;42.700;24.170;2022-12-07T05:16:37;93890.19;;;5.83;96.86
23166;BME280;11751;42.700;24.170;2022-12-07T05:19:03;93889.69;;;5.85;96.59
23166;BME280;11751;42.700;24.170;2022-12-07T05:21:28;93889.31;;;5.75;96.53
23166;BME280;11751;42.700;24.170;2022-12-07T05:23:54;93883.75;;;5.75;96.62
23166;BME280;11751;42.700;24.170;2022-12-07T05:26:19;93886.94;;;5.66;96.83
23166;BME280;11751;42.700;24.170;2022-12-07T05:28:49;93885.00;;;5.61;97.01
23166;BME280;11751;42.700;24.170;2022-12-07T05:31:14;93887.03;;;5.61;97.20
23166;BME280;11751;42.700;24.170;2022-12-07T05:33:40;93883.91;;;5.51;97.45
23166;BME280;11751;42.700;24.170;2022-12-07T05:36:05;93884.72;;;5.46;97.79
23166;BME280;11751;42.700;24.170;2022-12-07T05:38:33;93883.84;;;5.38;98.13
23166;BME280;11751;42.700;24.170;2022-12-07T05:41:03;93882.91;;;5.36;98.41
23166;BME280;11751;42.700;24.170;2022-12-07T05:43:29;93886.88;;;5.22;99.02
23166;BME280;11751;42.700;24.170;2022-12-07T05:45:55;93879.41;;;5.17;99.28
23166;BME280;11751;42.700;24.170;2022-12-07T05:48:21;93890.63;;;5.24;99.60
23166;BME280;11751;42.700;24.170;2022-12-07T05:50:48;93886.97;;;5.16;99.62
23166;BME280;11751;42.700;24.170;2022-12-07T05:53:13;93884.66;;;5.20;99.87
23166;BME280;11751;42.700;24.170;2022-12-07T05:55:39;93881.81;;;4.71;100.00
23166;BME280;11751;42.700;24.170;2022-12-07T05:58:05;93878.59;;;4.67;100.00
23166;BME280;11751;42.700;24.170;2022-12-07T06:00:49;93874.78;;;4.88;100.00
23166;BME280;11751;42.700;24.170;2022-12-07T06:03:14;93873.28;;;4.87;100.00
23166;BME280;11751;42.700;24.170;2022-12-07T06:05:40;93876.88;;;5.01;100.00
23166;BME280;11751;42.700;24.170;2022-12-07T06:08:05;93873.25;;;5.05;100.00
23166;BME280;11751;42.700;24.170;2022-12-07T06:10:31;93866.88;;;5.10;100.00
23166;BME280;11751;42.700;24.170;2022-12-07T06:12:56;93885.53;;;5.28;100.00
23166;BME280;11751;42.700;24.170;2022-12-07T06:15:21;93884.34;;;5.05;100.00
23166;BME280;11751;42.700;24.170;2022-12-07T06:17:48;93883.53;;;5.10;100.00
23166;BME280;11751;42.700;24.170;2022-12-07T06:20:13;93884.66;;;5.20;100.00
23166;BME280;11751;42.700;24.170;2022-12-07T06:22:39;93886.31;;;5.10;100.00
23166;BME280;11751;42.700;24.170;2022-12-07T06:25:05;93887.34;;;5.07;100.00
23166;BME280;11751;42.700;24.170;2022-12-07T06:27:32;93882.53;;;5.26;100.00
23166;BME280;11751;42.700;24.170;2022-12-07T06:29:58;93892.13;;;5.25;100.00
23166;BME280;11751;42.700;24.170;2022-12-07T06:32:23;93892.13;;;5.25;100.00
23166;BME280;11751;42.700;24.170;2022-12-07T06:34:48;93888.06;;;5.26;99.92
23166;BME280;11751;42.700;24.170;2022-12-07T06:37:14;93892.19;;;5.38;99.72
23166;BME280;11751;42.700;24.170;2022-12-07T06:39:39;93898.94;;;5.24;100.00
23166;BME280;11751;42.700;24.170;2022-12-07T06:42:05;93906.22;;;5.27;100.00
23166;BME280;11751;42.700;24.170;2022-12-07T06:44:30;93895.50;;;5.37;100.00
23166;BME280;11751;42.700;24.170;2022-12-07T06:46:56;93903.03;;;5.55;99.77
23166;BME280;11751;42.700;24.170;2022-12-07T06:49:21;93907.81;;;5.54;99.64
23166;BME280;11751;42.700;24.170;2022-12-07T06:51:47;93903.59;;;5.66;99.63
23166;BME280;11751;42.700;24.170;2022-12-07T06:54:13;93910.72;;;5.80;99.26
23166;BME280;11751;42.700;24.170;2022-12-07T06:56:39;93912.22;;;5.81;99.46
23166;BME280;11751;42.700;24.170;2022-12-07T06:59:06;93920.78;;;5.96;99.22
23166;BME280;11751;42.700;24.170;2022-12-07T07:01:32;93911.81;;;6.03;99.08
23166;BME280;11751;42.700;24.170;2022-12-07T07:03:58;93915.03;;;6.07;98.33
23166;BME280;11751;42.700;24.170;2022-12-07T07:06:23;93912.91;;;6.13;97.89
23166;BME280;11751;42.700;24.170;2022-12-07T07:08:49;93913.78;;;6.21;97.13
23166;BME280;11751;42.700;24.170;2022-12-07T07:11:14;93917.09;;;6.19;96.63
23166;BME280;11751;42.700;24.170;2022-12-07T07:13:40;93916.16;;;6.30;96.51
23166;BME280;11751;42.700;24.170;2022-12-07T07:16:06;93917.00;;;6.38;95.83
23166;BME280;11751;42.700;24.170;2022-12-07T07:18:32;93913.88;;;6.28;96.08
23166;BME280;11751;42.700;24.170;2022-12-07T07:20:58;93912.09;;;6.31;96.27
23166;BME280;11751;42.700;24.170;2022-12-07T07:23:24;93908.31;;;6.28;96.75
23166;BME280;11751;42.700;24.170;2022-12-07T07:25:49;93913.56;;;6.45;96.06
23166;BME280;11751;42.700;24.170;2022-12-07T07:28:15;93906.97;;;6.61;95.64
23166;BME280;11751;42.700;24.170;2022-12-07T07:30:41;93906.31;;;6.68;95.41
23166;BME280;11751;42.700;24.170;2022-12-07T07:33:07;93908.03;;;6.58;95.34
23166;BME280;11751;42.700;24.170;2022-12-07T07:35:33;93909.72;;;6.74;95.24
23166;BME280;11751;42.700;24.170;2022-12-07T07:37:59;93902.75;;;6.80;94.09
23166;BME280;11751;42.700;24.170;2022-12-07T07:40:29;93903.59;;;6.88;93.96
23166;BME280;11751;42.700;24.170;2022-12-07T07:42:54;93908.19;;;6.85;93.25
23166;BME280;11751;42.700;24.170;2022-12-07T07:45:21;93913.03;;;6.72;92.72
23166;BME280;11751;42.700;24.170;2022-12-07T07:47:47;93907.34;;;6.78;92.88
23166;BME280;11751;42.700;24.170;2022-12-07T07:50:13;93909.91;;;6.88;93.35
23166;BME280;11751;42.700;24.170;2022-12-07T07:52:38;93900.03;;;7.00;93.25
23166;BME280;11751;42.700;24.170;2022-12-07T07:55:04;93902.16;;;7.07;93.36
23166;BME280;11751;42.700;24.170;2022-12-07T07:57:30;93889.50;;;7.19;92.78
23166;BME280;11751;42.700;24.170;2022-12-07T07:59:55;93894.81;;;7.30;92.32
23166;BME280;11751;42.700;24.170;2022-12-07T08:02:22;93899.47;;;7.48;92.73
23166;BME280;11751;42.700;24.170;2022-12-07T08:04:48;93892.44;;;7.55;91.34
23166;BME280;11751;42.700;24.170;2022-12-07T08:07:14;93895.19;;;7.47;91.25
23166;BME280;11751;42.700;24.170;2022-12-07T08:09:40;93897.88;;;7.40;92.12
23166;BME280;11751;42.700;24.170;2022-12-07T08:12:06;93888.47;;;7.63;91.20
23166;BME280;11751;42.700;24.170;2022-12-07T08:14:32;93897.38;;;7.62;90.73
23166;BME280;11751;42.700;24.170;2022-12-07T08:16:58;93890.38;;;7.68;89.99
23166;BME280;11751;42.700;24.170;2022-12-07T08:19:23;93893.34;;;7.70;89.55
23166;BME280;11751;42.700;24.170;2022-12-07T08:21:49;93887.03;;;7.69;90.08
23166;BME280;11751;42.700;24.170;2022-12-07T08:24:15;93888.03;;;7.59;89.56
23166;BME280;11751;42.700;24.170;2022-12-07T08:26:41;93884.16;;;7.42;89.45
23166;BME280;11751;42.700;24.170;2022-12-07T08:29:06;93881.50;;;7.36;91.11
23166;BME280;11751;42.700;24.170;2022-12-07T08:31:32;93883.66;;;7.30;91.20
23166;BME280;11751;42.700;24.170;2022-12-07T08:33:58;93885.31;;;7.46;90.94
23166;BME280;11751;42.700;24.170;2022-12-07T08:36:24;93879.06;;;7.53;90.44
23166;BME280;11751;42.700;24.170;2022-12-07T08:38:50;93887.66;;;7.55;90.23
23166;BME280;11751;42.700;24.170;2022-12-07T08:41:16;93883.16;;;7.52;90.65
23166;BME280;11751;42.700;24.170;2022-12-07T08:43:42;93881.53;;;7.77;89.76
23166;BME280;11751;42.700;24.170;2022-12-07T08:46:17;93885.22;;;7.92;89.15
23166;BME280;11751;42.700;24.170;2022-12-07T08:51:16;93880.34;;;8.34;87.57
23166;BME280;11751;42.700;24.170;2022-12-07T08:53:42;93865.75;;;8.48;86.33
23166;BME280;11751;42.700;24.170;2022-12-07T08:56:09;93863.88;;;8.50;85.35
23166;BME280;11751;42.700;24.170;2022-12-07T08:58:35;93879.34;;;8.51;85.97
23166;BME280;11751;42.700;24.170;2022-12-07T09:01:02;93872.16;;;8.63;85.47
23166;BME280;11751;42.700;24.170;2022-12-07T09:03:28;93864.00;;;8.65;85.51
23166;BME280;11751;42.700;24.170;2022-12-07T09:05:54;93861.84;;;8.86;84.74
23166;BME280;11751;42.700;24.170;2022-12-07T09:08:20;93861.84;;;8.86;84.07
23166;BME280;11751;42.700;24.170;2022-12-07T09:10:46;93862.25;;;8.90;84.03
23166;BME280;11751;42.700;24.170;2022-12-07T09:13:12;93857.06;;;8.94;84.61
23166;BME280;11751;42.700;24.170;2022-12-07T09:15:38;93867.50;;;9.01;84.33
23166;BME280;11751;42.700;24.170;2022-12-07T09:18:04;93857.31;;;9.11;84.03
23166;BME280;11751;42.700;24.170;2022-12-07T09:20:29;93849.13;;;9.13;84.30
23166;BME280;11751;42.700;24.170;2022-12-07T09:22:55;93853.00;;;9.10;83.38
23166;BME280;11751;42.700;24.170;2022-12-07T09:25:20;93848.59;;;9.22;82.86
23166;BME280;11751;42.700;24.170;2022-12-07T09:27:45;93846.00;;;9.32;82.26
23166;BME280;11751;42.700;24.170;2022-12-07T09:30:11;93846.41;;;9.43;81.86
23166;BME280;11751;42.700;24.170;2022-12-07T09:32:37;93840.41;;;9.32;82.38
23166;BME280;11751;42.700;24.170;2022-12-07T09:35:02;93839.13;;;9.40;83.42
23166;BME280;11751;42.700;24.170;2022-12-07T09:37:28;93839.53;;;9.44;83.25
23166;BME280;11751;42.700;24.170;2022-12-07T09:39:53;93839.69;;;9.46;82.99
23166;BME280;11751;42.700;24.170;2022-12-07T09:42:30;93836.69;;;9.29;83.45
23166;BME280;11751;42.700;24.170;2022-12-07T09:44:58;93832.25;;;9.56;82.59
23166;BME280;11751;42.700;24.170;2022-12-07T09:47:24;93825.91;;;9.48;81.63
23166;BME280;11751;42.700;24.170;2022-12-07T09:49:49;93820.16;;;9.53;82.09
23166;BME280;11751;42.700;24.170;2022-12-07T09:52:27;93820.72;;;9.67;82.29
23166;BME280;11751;42.700;24.170;2022-12-07T09:54:53;93822.97;;;9.68;82.87
23166;BME280;11751;42.700;24.170;2022-12-07T09:57:28;93815.16;;;9.82;82.53
23166;BME280;11751;42.700;24.170;2022-12-07T09:59:59;93821.47;;;9.90;82.05
23166;BME280;11751;42.700;24.170;2022-12-07T10:02:38;93814.03;;;9.92;80.35
23166;BME280;11751;42.700;24.170;2022-12-07T10:05:06;93809.53;;;9.97;80.36
23166;BME280;11751;42.700;24.170;2022-12-07T10:07:33;93802.09;;;10.14;79.90
23166;BME280;11751;42.700;24.170;2022-12-07T10:09:58;93802.81;;;10.37;79.21
23166;BME280;11751;42.700;24.170;2022-12-07T10:12:24;93797.91;;;10.52;78.52
23166;BME280;11751;42.700;24.170;2022-12-07T10:15:02;93802.38;;;10.70;78.74
23166;BME280;11751;42.700;24.170;2022-12-07T10:22:34;93794.97;;;10.97;76.75
23166;BME280;11751;42.700;24.170;2022-12-07T10:25:08;93803.75;;;11.01;76.24
23166;BME280;11751;42.700;24.170;2022-12-07T10:27:34;93798.47;;;11.05;75.98
23166;BME280;11751;42.700;24.170;2022-12-07T10:29:59;93781.25;;;11.16;77.16
23166;BME280;11751;42.700;24.170;2022-12-07T10:32:34;93787.06;;;11.42;74.71
23166;BME280;11751;42.700;24.170;2022-12-07T10:35:22;93788.03;;;11.37;77.04
23166;BME280;11751;42.700;24.170;2022-12-07T10:37:49;93776.34;;;11.24;75.23
23166;BME280;11751;42.700;24.170;2022-12-07T10:40:35;93775.16;;;11.66;74.21
23166;BME280;11751;42.700;24.170;2022-12-07T10:43:02;93769.84;;;11.78;74.55
23166;BME280;11751;42.700;24.170;2022-12-07T10:45:28;93761.28;;;11.93;75.86
23166;BME280;11751;42.700;24.170;2022-12-07T10:48:06;93758.66;;;11.94;74.26
23166;BME280;11751;42.700;24.170;2022-12-07T11:04:28;93735.59;;;12.20;72.82
23166;BME280;11751;42.700;24.170;2022-12-07T11:12:41;93731.38;;;12.46;72.36
23166;BME280;11751;42.700;24.170;2022-12-07T11:26:52;93711.63;;;12.87;71.30
23166;BME280;11751;42.700;24.170;2022-12-07T11:32:20;93710.47;;;12.90;70.05
23166;BME280;11751;42.700;24.170;2022-12-07T11:37:28;93701.69;;;13.29;69.25
23166;BME280;11751;42.700;24.170;2022-12-07T11:40:02;93697.03;;;13.15;69.44
23166;BME280;11751;42.700;24.170;2022-12-07T11:42:33;93695.31;;;13.29;70.11
23166;BME280;11751;42.700;24.170;2022-12-07T11:45:13;93692.47;;;13.46;69.30
23166;BME280;11751;42.700;24.170;2022-12-07T11:48:06;93687.03;;;13.57;69.43
23166;BME280;11751;42.700;24.170;2022-12-07T11:53:11;93680.03;;;13.49;69.19
23166;BME280;11751;42.700;24.170;2022-12-07T11:56:00;93680.78;;;13.49;68.54
23166;BME280;11751;42.700;24.170;2022-12-07T12:03:45;93677.53;;;13.53;68.06
23166;BME280;11751;42.700;24.170;2022-12-07T12:06:12;93674.81;;;13.36;69.37
23166;BME280;11751;42.700;24.170;2022-12-07T12:08:42;93678.09;;;13.51;69.45
23166;BME280;11751;42.700;24.170;2022-12-07T12:19:42;93669.84;;;13.27;68.46
23166;BME280;11751;42.700;24.170;2022-12-07T12:22:20;93660.09;;;13.28;69.40
23166;BME280;11751;42.700;24.170;2022-12-07T12:24:50;93661.56;;;12.93;69.70
23166;BME280;11751;42.700;24.170;2022-12-07T12:27:23;93660.06;;;12.92;69.22
23166;BME280;11751;42.700;24.170;2022-12-07T12:29:55;93659.91;;;12.73;69.93
23166;BME280;11751;42.700;24.170;2022-12-07T12:32:27;93646.59;;;12.74;70.69
23166;BME280;11751;42.700;24.170;2022-12-07T12:42:52;93649.81;;;12.87;69.30
23166;BME280;11751;42.700;24.170;2022-12-07T12:45:30;93645.84;;;12.90;70.22
23166;BME280;11751;42.700;24.170;2022-12-07T12:50:29;93642.72;;;13.12;69.54
23166;BME280;11751;42.700;24.170;2022-12-07T12:58:40;93651.69;;;12.84;70.93
23166;BME280;11751;42.700;24.170;2022-12-07T13:01:46;93659.56;;;12.86;70.66
23166;BME280;11751;42.700;24.170;2022-12-07T13:04:23;93654.47;;;12.75;70.84
23166;BME280;11751;42.700;24.170;2022-12-07T13:06:49;93649.84;;;12.70;70.80
23166;BME280;11751;42.700;24.170;2022-12-07T13:09:27;93656.34;;;12.46;71.79
23166;BME280;11751;42.700;24.170;2022-12-07T13:11:59;93651.19;;;12.52;71.46
23166;BME280;11751;42.700;24.170;2022-12-07T13:17:54;93649.44;;;12.57;70.98
23166;BME280;11751;42.700;24.170;2022-12-07T13:20:07;93648.41;;;12.35;72.25
23166;BME280;11751;42.700;24.170;2022-12-07T13:25:33;93646.94;;;12.17;73.84
23166;BME280;11751;42.700;24.170;2022-12-07T13:28:15;93649.06;;;12.09;73.67
23166;BME280;11751;42.700;24.170;2022-12-07T13:33:24;93649.56;;;11.82;75.42
23166;BME280;11751;42.700;24.170;2022-12-07T13:35:57;93642.06;;;11.84;75.07
23166;BME280;11751;42.700;24.170;2022-12-07T13:38:35;93647.81;;;11.86;75.27
23166;BME280;11751;42.700;24.170;2022-12-07T13:41:16;93654.84;;;11.78;75.37
23166;BME280;11751;42.700;24.170;2022-12-07T13:44:07;93647.41;;;11.73;75.70
23166;BME280;11751;42.700;24.170;2022-12-07T13:49:18;93645.31;;;11.56;77.37
23166;BME280;11751;42.700;24.170;2022-12-07T13:51:44;93636.50;;;11.60;77.47
23166;BME280;11751;42.700;24.170;2022-12-07T13:54:11;93641.47;;;11.69;76.42
23166;BME280;11751;42.700;24.170;2022-12-07T13:56:37;93642.97;;;11.70;76.41
23166;BME280;11751;42.700;24.170;2022-12-07T13:59:22;93640.31;;;11.72;76.90
23166;BME280;11751;42.700;24.170;2022-12-07T14:01:50;93654.56;;;11.66;77.46
23166;BME280;11751;42.700;24.170;2022-12-07T14:04:32;93653.91;;;11.51;78.67
23166;BME280;11751;42.700;24.170;2022-12-07T14:06:59;93648.41;;;11.43;78.98
23166;BME280;11751;42.700;24.170;2022-12-07T14:09:27;93650.00;;;11.54;78.72
23166;BME280;11751;42.700;24.170;2022-12-07T14:11:55;93639.75;;;11.49;78.97
23166;BME280;11751;42.700;24.170;2022-12-07T14:14:26;93644.34;;;11.37;79.47
23166;BME280;11751;42.700;24.170;2022-12-07T14:17:13;93658.63;;;11.24;80.38
23166;BME280;11751;42.700;24.170;2022-12-07T14:19:47;93652.28;;;11.23;80.47
23166;BME280;11751;42.700;24.170;2022-12-07T14:27:39;93651.66;;;10.76;81.32
23166;BME280;11751;42.700;24.170;2022-12-07T14:30:05;93657.44;;;10.78;80.94
23166;BME280;11751;42.700;24.170;2022-12-07T14:32:32;93663.47;;;10.67;81.32
23166;BME280;11751;42.700;24.170;2022-12-07T14:35:31;93663.13;;;10.63;81.80
23166;BME280;11751;42.700;24.170;2022-12-07T14:37:49;93661.34;;;10.43;82.46
23166;BME280;11751;42.700;24.170;2022-12-07T14:40:21;93655.41;;;10.39;82.54
23166;BME280;11751;42.700;24.170;2022-12-07T14:42:52;93661.81;;;10.25;83.12
23166;BME280;11751;42.700;24.170;2022-12-07T14:45:21;93668.97;;;9.89;84.60
23166;BME280;11751;42.700;24.170;2022-12-07T14:47:47;93672.50;;;9.97;84.38
23166;BME280;11751;42.700;24.170;2022-12-07T14:50:16;93673.13;;;9.73;85.33
23166;BME280;11751;42.700;24.170;2022-12-07T14:55:27;93676.84;;;9.60;85.77
23166;BME280;11751;42.700;24.170;2022-12-07T14:57:54;93672.03;;;9.61;85.58
23166;BME280;11751;42.700;24.170;2022-12-07T15:00:22;93674.25;;;9.55;85.75
23166;BME280;11751;42.700;24.170;2022-12-07T15:02:48;93670.53;;;9.60;85.49
23166;BME280;11751;42.700;24.170;2022-12-07T15:05:14;93673.50;;;9.62;85.46
23166;BME280;11751;42.700;24.170;2022-12-07T15:07:41;93675.75;;;9.63;85.13
23166;BME280;11751;42.700;24.170;2022-12-07T15:10:16;93675.94;;;9.58;85.08
23166;BME280;11751;42.700;24.170;2022-12-07T15:12:43;93681.53;;;9.58;84.89
23166;BME280;11751;42.700;24.170;2022-12-07T15:15:09;93677.59;;;9.53;84.75
23166;BME280;11751;42.700;24.170;2022-12-07T15:17:35;93673.91;;;9.51;84.81
23166;BME280;11751;42.700;24.170;2022-12-07T15:20:00;93682.47;;;9.38;85.56
23166;BME280;11751;42.700;24.170;2022-12-07T15:22:26;93677.44;;;9.29;85.73